createdAt,value
2017-09-11T00:00:49.265Z,21.60
2017-09-11T00:02:51.830Z,21.58
2017-09-11T00:04:54.356Z,21.56
2017-09-11T00:06:56.884Z,21.41
2017-09-11T00:08:59.340Z,21.38
2017-09-11T00:11:01.800Z,21.51
2017-09-11T00:13:04.250Z,21.58
2017-09-11T00:15:06.753Z,21.54
2017-09-11T00:17:09.241Z,21.49
2017-09-11T00:19:11.677Z,21.55
2017-09-11T00:21:14.203Z,21.46
2017-09-11T00:23:16.737Z,21.49
2017-09-11T00:25:19.244Z,21.48
2017-09-11T00:27:21.700Z,21.48
2017-09-11T00:29:24.128Z,21.51
2017-09-11T00:31:26.553Z,21.54
2017-09-11T00:33:29.168Z,21.53
2017-09-11T00:35:31.664Z,21.49
2017-09-11T00:37:34.232Z,21.43
2017-09-11T00:39:36.775Z,21.47
2017-09-11T00:41:39.270Z,21.51
2017-09-11T00:43:41.728Z,21.58
2017-09-11T00:45:44.184Z,21.53
2017-09-11T00:47:46.628Z,21.51
2017-09-11T00:49:49.068Z,21.40
2017-09-11T00:51:51.560Z,21.49
2017-09-11T00:53:53.986Z,21.57
2017-09-11T00:55:56.480Z,21.56
2017-09-11T00:57:58.996Z,21.57
2017-09-11T01:00:01.507Z,21.60
2017-09-11T01:02:04.013Z,21.65
2017-09-11T01:04:06.509Z,21.65
2017-09-11T01:06:08.968Z,21.66
2017-09-11T01:08:11.532Z,21.68
2017-09-11T01:10:14.029Z,21.72
2017-09-11T01:12:16.497Z,21.65
2017-09-11T01:14:18.969Z,21.70
2017-09-11T01:16:21.422Z,21.76
2017-09-11T01:18:23.865Z,21.77
2017-09-11T01:20:26.452Z,21.78
2017-09-11T01:22:29.124Z,21.77
2017-09-11T01:24:31.566Z,21.70
2017-09-11T01:26:34.011Z,21.75
2017-09-11T01:28:36.460Z,21.79
2017-09-11T01:30:38.884Z,21.82
2017-09-11T01:32:41.308Z,21.80
2017-09-11T01:34:43.871Z,21.84
2017-09-11T01:36:46.320Z,21.72
2017-09-11T01:38:48.754Z,21.72
2017-09-11T01:40:51.210Z,21.76
2017-09-11T01:42:53.652Z,21.74
2017-09-11T01:44:56.088Z,21.74
2017-09-11T01:46:58.696Z,21.70
2017-09-11T01:49:01.132Z,21.72
2017-09-11T01:51:03.640Z,21.72
2017-09-11T01:53:06.096Z,21.72
2017-09-11T01:55:08.610Z,21.70
2017-09-11T01:57:11.184Z,21.74
2017-09-11T01:59:13.761Z,21.77
2017-09-11T02:01:16.213Z,21.77
2017-09-11T02:03:18.657Z,21.73
2017-09-11T02:05:21.270Z,21.68
2017-09-11T02:07:23.751Z,21.70
2017-09-11T02:09:26.176Z,21.71
2017-09-11T02:11:28.678Z,21.77
2017-09-11T02:13:31.148Z,21.76
2017-09-11T02:15:33.576Z,21.81
2017-09-11T02:17:36.090Z,21.87
2017-09-11T02:19:38.701Z,21.81
2017-09-11T02:21:41.218Z,21.72
2017-09-11T02:23:43.734Z,21.73
2017-09-11T02:25:46.164Z,21.74
2017-09-11T02:27:48.600Z,21.78
2017-09-11T02:29:51.136Z,21.81
2017-09-11T02:31:53.637Z,21.80
2017-09-11T02:33:56.089Z,21.85
2017-09-11T02:35:58.547Z,21.90
2017-09-11T02:38:01.000Z,21.84
2017-09-11T02:40:03.462Z,21.78
2017-09-11T02:42:05.972Z,21.76
2017-09-11T02:44:08.485Z,21.80
2017-09-11T02:46:10.957Z,21.77
2017-09-11T02:48:13.429Z,21.77
2017-09-11T02:50:15.969Z,21.74
2017-09-11T02:52:18.396Z,21.69
2017-09-11T02:54:20.865Z,21.73
2017-09-11T02:56:23.447Z,21.70
2017-09-11T02:58:25.923Z,21.73
2017-09-11T03:00:28.408Z,21.79
2017-09-11T03:02:30.945Z,21.79
2017-09-11T03:04:33.409Z,21.83
2017-09-11T03:06:35.861Z,21.75
2017-09-11T03:08:38.305Z,21.81
2017-09-11T03:10:40.788Z,21.82
2017-09-11T03:12:43.344Z,21.87
2017-09-11T03:14:45.897Z,21.76
2017-09-11T03:16:48.332Z,21.72
2017-09-11T03:18:50.925Z,21.74
2017-09-11T03:20:53.349Z,21.65
2017-09-11T03:22:55.784Z,21.62
2017-09-11T03:24:58.443Z,21.69
2017-09-11T03:27:00.896Z,21.71
2017-09-11T03:29:03.475Z,21.76
2017-09-11T03:31:06.030Z,21.79
2017-09-11T03:33:08.459Z,21.72
2017-09-11T03:35:10.937Z,21.73
2017-09-11T03:37:13.472Z,21.72
2017-09-11T03:39:15.951Z,21.76
2017-09-11T03:41:18.461Z,21.72
2017-09-11T03:43:21.067Z,21.79
2017-09-11T03:45:23.542Z,21.85
2017-09-11T03:47:26.102Z,21.87
2017-09-11T03:49:28.681Z,21.82
2017-09-11T03:51:31.105Z,21.82
2017-09-11T03:53:33.557Z,21.88
2017-09-11T03:55:36.143Z,21.92
2017-09-11T03:57:38.588Z,21.85
2017-09-11T03:59:41.075Z,21.85
2017-09-11T04:01:43.561Z,21.89
2017-09-11T04:03:46.030Z,21.88
2017-09-11T04:05:48.460Z,21.91
2017-09-11T04:07:50.922Z,21.86
2017-09-11T04:09:53.399Z,21.89
2017-09-11T04:11:55.955Z,21.85
2017-09-11T04:13:58.468Z,21.85
2017-09-11T04:16:00.944Z,21.93
2017-09-11T04:18:03.380Z,21.86
2017-09-11T04:20:05.864Z,21.88
2017-09-11T04:22:08.308Z,21.76
2017-09-11T04:24:10.847Z,21.78
2017-09-11T04:26:13.528Z,21.74
2017-09-11T04:28:15.997Z,21.75
2017-09-11T04:30:18.459Z,21.79
2017-09-11T04:32:21.048Z,21.77
2017-09-11T04:34:23.541Z,21.74
2017-09-11T04:36:25.980Z,21.86
2017-09-11T04:38:28.428Z,21.86
2017-09-11T04:40:30.897Z,21.88
2017-09-11T04:42:33.327Z,21.86
2017-09-11T04:44:35.778Z,21.79
2017-09-11T04:46:38.360Z,21.79
2017-09-11T04:48:40.946Z,21.82
2017-09-11T04:50:43.430Z,21.83
2017-09-11T04:52:45.868Z,21.83
2017-09-11T04:54:48.340Z,21.87
2017-09-11T04:56:50.887Z,21.80
2017-09-11T04:58:53.324Z,21.82
2017-09-11T05:00:55.953Z,21.79
2017-09-11T05:02:58.423Z,21.85
2017-09-11T05:05:00.860Z,21.82
2017-09-11T05:07:03.292Z,21.85
2017-09-11T05:09:05.834Z,21.92
2017-09-11T05:11:08.313Z,21.86
2017-09-11T05:13:10.777Z,21.89
2017-09-11T05:15:13.232Z,21.84
2017-09-11T05:17:15.772Z,21.79
2017-09-11T05:19:18.247Z,21.88
2017-09-11T05:21:20.701Z,21.82
2017-09-11T05:23:23.140Z,21.86
2017-09-11T05:25:25.574Z,21.85
2017-09-11T05:27:28.313Z,21.86
2017-09-11T05:29:30.850Z,21.83
2017-09-11T05:31:33.417Z,21.87
2017-09-11T05:33:35.891Z,21.78
2017-09-11T05:35:38.399Z,21.81
2017-09-11T05:37:40.909Z,21.86
2017-09-11T05:39:43.402Z,21.88
2017-09-11T05:41:45.841Z,21.88
2017-09-11T05:43:48.489Z,21.89
2017-09-11T05:45:50.993Z,21.86
2017-09-11T05:47:53.545Z,21.91
2017-09-11T05:49:56.014Z,21.90
2017-09-11T05:51:58.509Z,21.81
2017-09-11T05:54:01.038Z,21.87
2017-09-11T05:56:03.648Z,21.95
2017-09-11T05:58:06.122Z,21.98
2017-09-11T06:00:08.568Z,21.98
2017-09-11T06:02:11.039Z,21.99
2017-09-11T06:04:13.527Z,21.93
2017-09-11T06:06:15.970Z,21.88
2017-09-11T06:08:18.396Z,21.84
2017-09-11T06:10:20.864Z,21.90
2017-09-11T06:12:23.393Z,21.90
2017-09-11T06:14:25.905Z,21.90
2017-09-11T06:16:28.581Z,21.95
2017-09-11T06:18:31.067Z,21.97
2017-09-11T06:20:33.517Z,21.95
2017-09-11T06:22:36.037Z,21.90
2017-09-11T06:24:38.493Z,21.92
2017-09-11T06:26:40.956Z,22.00
2017-09-11T06:28:43.467Z,22.07
2017-09-11T06:30:45.972Z,22.13
2017-09-11T06:32:48.444Z,22.21
2017-09-11T06:34:50.989Z,22.26
2017-09-11T06:36:53.522Z,22.30
2017-09-11T06:38:56.008Z,22.34
2017-09-11T06:40:58.508Z,22.38
2017-09-11T06:43:00.998Z,22.40
2017-09-11T06:45:03.476Z,22.42
2017-09-11T06:47:06.095Z,22.45
2017-09-11T06:49:09.436Z,22.50
2017-09-11T06:51:11.899Z,22.53
2017-09-11T06:53:14.468Z,22.55
2017-09-11T06:57:25.796Z,22.62
2017-09-11T06:59:28.421Z,22.63
2017-09-11T07:01:30.880Z,22.65
2017-09-11T07:03:33.642Z,22.66
2017-09-11T07:05:36.110Z,22.66
2017-09-11T07:07:38.560Z,22.67
2017-09-11T07:09:41.001Z,22.70
2017-09-11T07:11:43.496Z,22.70
2017-09-11T07:13:46.001Z,22.69
2017-09-11T07:15:48.455Z,22.71
2017-09-11T07:17:50.909Z,22.71
2017-09-11T07:19:53.355Z,22.76
2017-09-11T07:21:55.799Z,22.78
2017-09-11T07:23:58.252Z,22.79
2017-09-11T07:26:00.681Z,22.82
2017-09-11T07:28:03.151Z,22.83
2017-09-11T07:30:05.771Z,22.82
2017-09-11T07:32:08.272Z,22.84
2017-09-11T07:34:10.692Z,22.84
2017-09-11T07:36:13.154Z,22.87
2017-09-11T07:38:15.630Z,22.88
2017-09-11T07:40:18.068Z,22.89
2017-09-11T07:42:20.576Z,22.91
2017-09-11T07:44:23.048Z,22.95
2017-09-11T07:46:25.502Z,22.95
2017-09-11T07:48:27.969Z,22.96
2017-09-11T07:50:30.505Z,22.97
2017-09-11T07:52:33.017Z,22.98
2017-09-11T07:54:35.588Z,22.97
2017-09-11T07:56:38.035Z,22.99
2017-09-11T07:58:40.501Z,23.01
2017-09-11T08:00:42.963Z,23.01
2017-09-11T08:02:45.402Z,23.06
2017-09-11T08:04:47.832Z,23.08
2017-09-11T08:06:50.309Z,23.13
2017-09-11T08:08:52.796Z,23.16
2017-09-11T08:10:55.460Z,23.18
2017-09-11T08:12:58.000Z,23.18
2017-09-11T08:15:00.450Z,23.17
2017-09-11T08:17:02.894Z,23.18
2017-09-11T08:19:05.355Z,23.17
2017-09-11T08:21:07.786Z,23.23
2017-09-11T08:23:10.267Z,23.25
2017-09-11T08:25:12.767Z,23.28
2017-09-11T08:27:15.217Z,23.30
2017-09-11T08:29:17.666Z,23.31
2017-09-11T08:31:20.488Z,23.30
2017-09-11T08:33:23.165Z,23.32
2017-09-11T08:35:25.721Z,23.32
2017-09-11T08:37:28.238Z,23.34
2017-09-11T08:39:30.708Z,23.32
2017-09-11T08:41:33.207Z,23.33
2017-09-11T08:43:35.669Z,23.33
2017-09-11T08:45:38.119Z,23.30
2017-09-11T08:47:40.554Z,23.30
2017-09-11T08:49:43.044Z,23.32
2017-09-11T08:51:45.508Z,23.37
2017-09-11T08:53:47.932Z,23.38
2017-09-11T08:55:51.153Z,23.39
2017-09-11T08:57:53.656Z,23.41
2017-09-11T08:59:56.192Z,23.44
2017-09-11T09:01:58.653Z,23.43
2017-09-11T09:04:01.089Z,23.45
2017-09-11T09:06:03.578Z,23.48
2017-09-11T09:08:06.076Z,23.51
2017-09-11T09:10:08.591Z,23.54
2017-09-11T09:12:11.095Z,23.53
2017-09-11T09:14:13.567Z,23.54
2017-09-11T09:16:16.012Z,23.49
2017-09-11T09:18:18.472Z,23.45
2017-09-11T09:20:21.017Z,23.40
2017-09-11T09:22:23.451Z,23.36
2017-09-11T09:24:25.910Z,23.42
2017-09-11T09:26:28.547Z,23.43
2017-09-11T09:28:31.050Z,23.46
2017-09-11T09:30:33.500Z,23.43
2017-09-11T09:32:36.217Z,23.43
2017-09-11T09:34:38.665Z,23.49
2017-09-11T09:36:41.112Z,23.56
2017-09-11T09:38:43.569Z,23.59
2017-09-11T09:40:46.032Z,23.59
2017-09-11T09:42:49.536Z,23.65
2017-09-11T09:44:52.939Z,23.65
2017-09-11T09:46:55.433Z,23.66
2017-09-11T09:48:57.911Z,23.67
2017-09-11T09:51:01.470Z,23.72
2017-09-11T09:53:03.932Z,23.72
2017-09-11T09:55:06.408Z,23.67
2017-09-11T09:57:08.882Z,23.69
2017-09-11T09:59:11.371Z,23.69
2017-09-11T10:01:13.920Z,23.69
2017-09-11T10:03:16.389Z,23.65
2017-09-11T10:05:18.890Z,23.60
2017-09-11T10:07:21.384Z,23.55
2017-09-11T10:09:23.864Z,23.55
2017-09-11T10:11:26.308Z,23.55
2017-09-11T10:13:28.842Z,23.54
2017-09-11T10:15:31.320Z,23.52
2017-09-11T10:17:33.767Z,23.51
2017-09-11T10:19:36.246Z,23.51
2017-09-11T10:21:38.827Z,23.48
2017-09-11T10:23:41.274Z,23.51
2017-09-11T10:25:43.714Z,23.53
2017-09-11T10:27:46.281Z,23.57
2017-09-11T10:29:48.711Z,23.58
2017-09-11T10:31:51.215Z,23.57
2017-09-11T10:33:53.720Z,23.58
2017-09-11T10:35:56.265Z,23.59
2017-09-11T10:37:58.713Z,23.56
2017-09-11T10:40:01.223Z,23.52
2017-09-11T10:42:03.667Z,23.51
2017-09-11T10:44:06.240Z,23.52
2017-09-11T10:46:08.756Z,23.51
2017-09-11T10:48:11.183Z,23.52
2017-09-11T10:50:13.722Z,23.53
2017-09-11T10:52:16.188Z,23.56
2017-09-11T10:54:18.621Z,23.63
2017-09-11T10:56:21.060Z,23.67
2017-09-11T10:58:23.531Z,23.70
2017-09-11T11:00:26.065Z,23.74
2017-09-11T11:02:28.581Z,23.75
2017-09-11T11:04:31.087Z,23.74
2017-09-11T11:06:33.525Z,23.72
2017-09-11T11:08:36.063Z,23.73
2017-09-11T11:10:38.576Z,23.75
2017-09-11T11:12:41.004Z,23.73
2017-09-11T11:14:43.441Z,23.75
2017-09-11T11:16:45.919Z,23.78
2017-09-11T11:18:48.384Z,23.77
2017-09-11T11:20:50.888Z,23.76
2017-09-11T11:22:53.369Z,23.74
2017-09-11T11:24:55.858Z,23.72
2017-09-11T11:26:58.300Z,23.71
2017-09-11T11:29:00.765Z,23.72
2017-09-11T11:31:03.236Z,23.71
2017-09-11T11:33:05.725Z,23.74
2017-09-11T11:35:08.400Z,23.75
2017-09-11T11:37:10.863Z,23.78
2017-09-11T11:39:13.418Z,23.81
2017-09-11T11:41:15.932Z,23.78
2017-09-11T11:43:18.455Z,23.75
2017-09-11T11:45:21.026Z,23.75
2017-09-11T11:47:23.485Z,23.74
2017-09-11T11:49:26.016Z,23.71
2017-09-11T11:51:28.440Z,23.69
2017-09-11T11:53:30.920Z,23.70
2017-09-11T11:55:33.376Z,23.69
2017-09-11T11:57:35.832Z,23.69
2017-09-11T11:59:38.378Z,23.69
2017-09-11T12:01:40.824Z,23.69
2017-09-11T12:03:43.257Z,23.73
2017-09-11T12:05:45.720Z,23.74
2017-09-11T12:07:48.195Z,23.74
2017-09-11T12:09:50.670Z,23.79
2017-09-11T12:11:53.133Z,23.83
2017-09-11T12:13:55.656Z,23.85
2017-09-11T12:15:58.129Z,23.85
2017-09-11T12:18:00.609Z,23.87
2017-09-11T12:20:03.159Z,23.85
2017-09-11T12:22:05.628Z,23.85
2017-09-11T12:24:08.136Z,23.88
2017-09-11T12:26:10.612Z,23.91
2017-09-11T12:28:13.076Z,23.92
2017-09-11T12:30:15.548Z,23.93
2017-09-11T12:32:18.043Z,23.96
2017-09-11T12:34:20.524Z,23.94
2017-09-11T12:36:23.100Z,23.95
2017-09-11T12:38:25.620Z,23.95
2017-09-11T12:40:28.070Z,23.92
2017-09-11T12:42:30.556Z,23.93
2017-09-11T12:44:32.988Z,23.99
2017-09-11T12:46:35.443Z,23.97
2017-09-11T12:48:37.940Z,23.94
2017-09-11T12:50:40.481Z,23.95
2017-09-11T12:52:43.052Z,23.95
2017-09-11T12:54:45.730Z,23.93
2017-09-11T12:56:48.267Z,23.93
2017-09-11T12:58:50.751Z,23.95
2017-09-11T13:00:53.206Z,23.97
2017-09-11T13:02:55.682Z,23.96
2017-09-11T13:04:58.133Z,23.94
2017-09-11T13:07:00.583Z,23.93
2017-09-11T13:09:03.135Z,23.92
2017-09-11T13:11:05.564Z,23.92
2017-09-11T13:13:08.069Z,23.92
2017-09-11T13:15:10.579Z,23.92
2017-09-11T13:17:13.015Z,23.92
2017-09-11T13:19:15.592Z,23.96
2017-09-11T13:21:18.112Z,24.01
2017-09-11T13:23:20.604Z,23.98
2017-09-11T13:25:23.192Z,24.00
2017-09-11T13:27:25.644Z,23.99
2017-09-11T13:29:28.165Z,23.98
2017-09-11T13:31:30.682Z,23.98
2017-09-11T13:33:33.227Z,23.99
2017-09-11T13:35:35.687Z,23.99
2017-09-11T13:37:38.423Z,23.99
2017-09-11T13:39:41.120Z,23.97
2017-09-11T13:41:43.561Z,24.00
2017-09-11T13:43:46.046Z,23.99
2017-09-11T13:45:48.608Z,23.96
2017-09-11T13:47:51.080Z,23.98
2017-09-11T13:49:53.564Z,23.98
2017-09-11T13:51:56.066Z,23.97
2017-09-11T13:53:58.505Z,23.93
2017-09-11T13:56:01.347Z,23.94
2017-09-11T13:58:03.776Z,23.95
2017-09-11T14:00:06.209Z,23.96
2017-09-11T14:02:08.678Z,23.98
2017-09-11T14:04:11.125Z,23.97
2017-09-11T14:06:13.731Z,23.94
2017-09-11T14:08:16.298Z,23.98
2017-09-11T14:10:18.737Z,23.97
2017-09-11T14:12:21.324Z,23.97
2017-09-11T14:14:23.803Z,23.98
2017-09-11T14:16:26.270Z,23.91
2017-09-11T14:18:28.722Z,23.89
2017-09-11T14:20:31.168Z,23.89
2017-09-11T14:22:33.628Z,23.87
2017-09-11T14:24:36.065Z,23.89
2017-09-11T14:26:38.573Z,23.90
2017-09-11T14:28:41.097Z,23.90
2017-09-11T14:30:43.607Z,23.82
2017-09-11T14:32:46.233Z,23.86
2017-09-11T14:34:48.780Z,23.91
2017-09-11T14:36:51.491Z,23.92
2017-09-11T14:38:55.144Z,23.93
2017-09-11T14:40:57.661Z,23.90
2017-09-11T14:43:00.089Z,23.87
2017-09-11T14:45:02.539Z,23.86
2017-09-11T14:47:04.981Z,23.81
2017-09-11T14:49:07.433Z,23.84
2017-09-11T14:51:09.915Z,23.86
2017-09-11T14:53:12.345Z,23.89
2017-09-11T14:55:14.847Z,23.88
2017-09-11T14:57:17.370Z,23.85
2017-09-11T14:59:19.834Z,23.85
2017-09-11T15:01:22.301Z,23.86
2017-09-11T15:03:24.790Z,23.86
2017-09-11T15:05:27.242Z,23.87
2017-09-11T15:07:29.681Z,23.87
2017-09-11T15:09:32.147Z,23.85
2017-09-11T15:11:34.580Z,23.84
2017-09-11T15:13:37.114Z,23.82
2017-09-11T15:15:39.796Z,23.81
2017-09-11T15:17:42.352Z,23.80
2017-09-11T15:19:44.795Z,23.79
2017-09-11T15:21:47.288Z,23.76
2017-09-11T15:23:49.745Z,23.70
2017-09-11T15:25:52.314Z,23.68
2017-09-11T15:27:54.804Z,23.70
2017-09-11T15:29:57.265Z,23.74
2017-09-11T15:32:00.285Z,23.75
2017-09-11T15:34:03.786Z,23.75
2017-09-11T15:36:07.360Z,23.74
2017-09-11T15:38:09.789Z,23.71
2017-09-11T15:40:12.405Z,23.71
2017-09-11T15:42:14.977Z,23.71
2017-09-11T15:44:17.485Z,23.73
2017-09-11T15:46:20.043Z,23.73
2017-09-11T15:48:22.509Z,23.69
2017-09-11T15:50:24.992Z,23.72
2017-09-11T15:52:27.481Z,23.72
2017-09-11T15:54:29.969Z,23.73
2017-09-11T15:56:32.408Z,23.71
2017-09-11T15:58:34.868Z,23.71
2017-09-11T16:00:37.317Z,23.66
2017-09-11T16:02:39.746Z,23.67
2017-09-11T16:04:42.210Z,23.66
2017-09-11T16:06:44.672Z,23.66
2017-09-11T16:08:47.340Z,23.66
2017-09-11T16:10:49.816Z,23.65
2017-09-11T16:12:52.403Z,23.63
2017-09-11T16:14:54.876Z,23.60
2017-09-11T16:16:57.337Z,23.58
2017-09-11T16:18:59.769Z,23.57
2017-09-11T16:21:02.285Z,23.56
2017-09-11T16:23:04.858Z,23.53
2017-09-11T16:25:07.296Z,23.53
2017-09-11T16:27:09.776Z,23.51
2017-09-11T16:29:12.253Z,23.52
2017-09-11T16:31:14.785Z,23.51
2017-09-11T16:33:17.242Z,23.49
2017-09-11T16:35:19.737Z,23.47
2017-09-11T16:37:22.180Z,23.47
2017-09-11T16:39:24.607Z,23.43
2017-09-11T16:41:27.132Z,23.42
2017-09-11T16:43:29.600Z,23.43
2017-09-11T16:45:32.060Z,23.42
2017-09-11T16:47:34.524Z,23.40
2017-09-11T16:49:36.953Z,23.41
2017-09-11T16:51:39.453Z,23.41
2017-09-11T16:53:41.920Z,23.40
2017-09-11T16:55:44.410Z,23.38
2017-09-11T16:57:46.938Z,23.37
2017-09-11T16:59:50.531Z,23.36
2017-09-11T17:01:53.007Z,23.36
2017-09-11T17:03:55.447Z,23.34
2017-09-11T17:05:57.956Z,23.33
2017-09-11T17:08:00.429Z,23.32
2017-09-11T17:10:02.864Z,23.30
2017-09-11T17:12:05.368Z,23.31
2017-09-11T17:14:07.803Z,23.32
2017-09-11T17:16:10.315Z,23.30
2017-09-11T17:18:12.774Z,23.28
2017-09-11T17:20:15.284Z,23.28
2017-09-11T17:22:17.750Z,23.27
2017-09-11T17:24:20.224Z,23.27
2017-09-11T17:26:22.663Z,23.25
2017-09-11T17:28:25.137Z,23.25
2017-09-11T17:30:27.594Z,23.23
2017-09-11T17:32:30.031Z,23.22
2017-09-11T17:34:32.486Z,23.21
2017-09-11T17:36:34.948Z,23.21
2017-09-11T17:38:37.457Z,23.19
2017-09-11T17:40:39.891Z,23.19
2017-09-11T17:42:42.444Z,23.17
2017-09-11T17:44:44.912Z,23.17
2017-09-11T17:46:47.374Z,23.16
2017-09-11T17:48:49.903Z,23.17
2017-09-11T17:50:52.396Z,23.15
2017-09-11T17:52:54.870Z,23.14
2017-09-11T17:54:57.338Z,23.14
2017-09-11T17:56:59.783Z,23.15
2017-09-11T17:59:02.221Z,23.14
2017-09-11T18:01:04.755Z,23.12
2017-09-11T18:03:07.209Z,23.12
2017-09-11T18:05:09.708Z,23.11
2017-09-11T18:07:12.196Z,23.12
2017-09-11T18:09:14.634Z,23.10
2017-09-11T18:11:17.081Z,23.09
2017-09-11T18:13:19.678Z,23.09
2017-09-11T18:15:22.124Z,23.08
2017-09-11T18:17:24.560Z,23.10
2017-09-11T18:19:27.052Z,23.08
2017-09-11T18:21:29.502Z,23.07
2017-09-11T18:23:32.137Z,23.08
2017-09-11T18:25:34.592Z,23.07
2017-09-11T18:27:37.116Z,23.07
2017-09-11T18:29:39.752Z,23.07
2017-09-11T18:31:42.201Z,23.05
2017-09-11T18:33:44.628Z,23.06
2017-09-11T18:35:47.118Z,23.07
2017-09-11T18:37:49.636Z,23.08
2017-09-11T18:39:52.067Z,23.05
2017-09-11T18:41:54.875Z,23.04
2017-09-11T18:43:58.987Z,23.05
2017-09-11T18:46:01.470Z,23.06
2017-09-11T18:48:04.028Z,23.06
2017-09-11T18:50:08.147Z,23.04
2017-09-11T18:52:10.750Z,23.04
2017-09-11T18:54:13.209Z,23.04
2017-09-11T18:56:15.753Z,23.02
2017-09-11T18:58:18.616Z,23.03
2017-09-11T19:00:22.452Z,23.03
2017-09-11T19:02:25.064Z,23.01
2017-09-11T19:04:27.502Z,23.01
2017-09-11T19:06:30.252Z,23.01
2017-09-11T19:08:32.844Z,23.01
2017-09-11T19:10:35.304Z,23.01
2017-09-11T19:12:37.773Z,23.03
2017-09-11T19:14:40.347Z,23.03
2017-09-11T19:16:42.844Z,23.01
2017-09-11T19:18:45.281Z,23.00
2017-09-11T19:20:47.814Z,23.00
2017-09-11T19:22:50.292Z,23.01
2017-09-11T19:24:52.730Z,23.00
2017-09-11T19:26:55.262Z,22.99
2017-09-11T19:28:57.766Z,22.99
2017-09-11T19:31:00.203Z,22.99
2017-09-11T19:33:02.774Z,22.99
2017-09-11T19:35:05.243Z,23.00
2017-09-11T19:37:07.816Z,22.98
2017-09-11T19:39:10.282Z,22.97
2017-09-11T19:41:12.962Z,22.98
2017-09-11T19:43:15.430Z,22.98
2017-09-11T19:45:17.992Z,22.97
2017-09-11T19:47:20.540Z,22.96
2017-09-11T19:49:23.046Z,22.98
2017-09-11T19:51:25.499Z,22.98
2017-09-11T19:53:27.928Z,22.97
2017-09-11T19:55:30.372Z,22.97
2017-09-11T19:57:32.882Z,22.96
2017-09-11T19:59:35.369Z,22.97
2017-09-11T20:01:37.808Z,22.95
2017-09-11T20:03:40.261Z,22.96
2017-09-11T20:05:42.868Z,22.96
2017-09-11T20:07:45.314Z,22.95
2017-09-11T20:09:47.802Z,22.95
2017-09-11T20:11:50.298Z,22.95
2017-09-11T20:13:52.794Z,22.95
2017-09-11T20:15:55.264Z,22.96
2017-09-11T20:17:57.704Z,22.95
2017-09-11T20:20:00.316Z,22.95
2017-09-11T20:22:02.799Z,22.95
2017-09-11T20:24:05.429Z,22.95
2017-09-11T20:26:08.010Z,22.94
2017-09-11T20:28:10.472Z,22.95
2017-09-11T20:30:12.937Z,22.95
2017-09-11T20:32:15.397Z,22.95
2017-09-11T20:34:17.912Z,22.94
2017-09-11T20:36:20.381Z,22.95
2017-09-11T20:38:22.849Z,22.94
2017-09-11T20:40:26.460Z,22.95
2017-09-11T20:42:29.014Z,22.93
2017-09-11T20:44:31.483Z,22.92
2017-09-11T20:46:34.096Z,22.92
2017-09-11T20:48:36.600Z,22.93
2017-09-11T20:50:39.043Z,22.93
2017-09-11T20:52:41.524Z,22.92
2017-09-11T20:54:44.636Z,22.92
2017-09-11T20:56:47.157Z,22.92
2017-09-11T20:58:49.606Z,22.92
2017-09-11T21:00:52.091Z,22.91
2017-09-11T21:02:54.572Z,22.92
2017-09-11T21:04:57.037Z,22.91
2017-09-11T21:06:59.469Z,22.91
2017-09-11T21:09:01.917Z,22.91
2017-09-11T21:11:04.387Z,22.93
2017-09-11T21:13:06.822Z,22.91
2017-09-11T21:15:09.458Z,22.92
2017-09-11T21:17:12.030Z,22.91
2017-09-11T21:19:14.480Z,22.91
2017-09-11T21:21:16.929Z,22.90
2017-09-11T21:23:19.392Z,22.93
2017-09-11T21:25:21.820Z,22.91
2017-09-11T21:27:24.256Z,22.91
2017-09-11T21:29:26.713Z,22.91
2017-09-11T21:31:29.204Z,22.91
2017-09-11T21:33:31.745Z,22.91
2017-09-11T21:35:34.205Z,22.89
2017-09-11T21:37:36.732Z,22.89
2017-09-11T21:39:39.228Z,22.89
2017-09-11T21:41:41.738Z,22.90
2017-09-11T21:43:44.189Z,22.91
2017-09-11T21:45:46.652Z,22.90
2017-09-11T21:47:49.256Z,22.90
2017-09-11T21:49:51.793Z,22.89
2017-09-11T21:51:54.241Z,22.90
2017-09-11T21:53:56.705Z,22.91
2017-09-11T21:55:59.209Z,22.89
2017-09-11T21:58:01.741Z,22.89
2017-09-11T22:00:04.300Z,22.90
2017-09-11T22:02:06.741Z,22.89
2017-09-11T22:04:09.197Z,22.89
2017-09-11T22:06:11.713Z,22.89
2017-09-11T22:08:14.168Z,22.89
2017-09-11T22:10:16.597Z,22.88
2017-09-11T22:12:19.049Z,22.88
2017-09-11T22:14:21.543Z,22.89
2017-09-11T22:16:23.996Z,22.88
2017-09-11T22:18:26.508Z,22.88
2017-09-11T22:20:29.057Z,22.88
2017-09-11T22:22:31.496Z,22.89
2017-09-11T22:24:34.068Z,22.87
2017-09-11T22:26:36.572Z,22.88
2017-09-11T22:28:39.116Z,22.89
2017-09-11T22:30:42.453Z,22.90
2017-09-11T22:32:44.904Z,22.87
2017-09-11T22:34:47.349Z,22.88
2017-09-11T22:36:49.821Z,22.87
2017-09-11T22:38:52.367Z,22.87
2017-09-11T22:40:54.797Z,22.87
2017-09-11T22:42:57.260Z,22.88
2017-09-11T22:44:59.755Z,22.87
2017-09-11T22:47:02.180Z,22.87
2017-09-11T22:49:04.773Z,22.88
2017-09-11T22:51:07.228Z,22.88
2017-09-11T22:53:09.654Z,22.87
2017-09-11T22:55:12.190Z,22.87
2017-09-11T22:57:14.623Z,22.87
2017-09-11T22:59:17.057Z,22.86
2017-09-11T23:01:19.554Z,22.87
2017-09-11T23:03:22.005Z,22.85
2017-09-11T23:05:24.483Z,22.87
2017-09-11T23:07:26.940Z,22.86
2017-09-11T23:09:29.425Z,22.87
2017-09-11T23:11:31.905Z,22.87
2017-09-11T23:13:34.381Z,22.86
2017-09-11T23:15:36.834Z,22.86
2017-09-11T23:17:39.266Z,22.84
2017-09-11T23:19:41.720Z,22.86
2017-09-11T23:21:44.192Z,22.86
2017-09-11T23:23:46.810Z,22.85
2017-09-11T23:25:49.319Z,22.86
2017-09-11T23:27:51.758Z,22.86
2017-09-11T23:29:54.540Z,22.86
2017-09-11T23:31:56.990Z,22.85
2017-09-11T23:33:59.580Z,22.85
2017-09-11T23:36:02.086Z,22.85
2017-09-11T23:38:04.555Z,22.84
2017-09-11T23:40:07.041Z,22.84
2017-09-11T23:42:09.504Z,22.85
2017-09-11T23:44:11.996Z,22.84
2017-09-11T23:46:14.500Z,22.83
2017-09-11T23:48:17.088Z,22.84
2017-09-11T23:50:19.685Z,22.85
2017-09-11T23:52:22.185Z,22.85
2017-09-11T23:54:24.692Z,22.84
2017-09-11T23:56:27.168Z,22.84
2017-09-11T23:58:29.610Z,22.85
